Coastal Carolina Regional Airport
KEWN : now visible

Aeroporto :











RITROVATECI SU...

 
LOGIN :

Iscrizione | Disclaimer

   EN    FR    IT 

 









Sommario :    VFR   VFR Marginale   IFR   IFR Intensivo   IFR Molto Intensivo
Visibilità : 
Base nubi : 
>= 8 km
>= 3000ft
5 / 8 km
1000 / 3000 ft
1500m / 5 km
500 / 1000 ft
800 / 1500m
200 / 500 ft
< 800m
< 200 ft
Simboli :   Temporali  Nebbia  Neve Forte  Precipitazioni Forti  Vento > 20 kt







- Altitudine del aeroporto : 18 ft
- Codice IATA : EWN


KEWN - Coastal Carolina Regional

ULTIMO METAR :
  • 180554Z AUTO 02008KT 10SM CLR 19/17 A3005 RMK AO2 SLP177 T01940172 10239 20194 53005

METARs OBSOLETI :
  • 180454Z AUTO 03010KT 10SM CLR 21/17 A3004 RMK AO2 SLP172 T02060167 403000206
  • 180354Z AUTO 05008KT 10SM CLR 21/18 A3003 RMK AO2 SLP168 T02110183

TAF KEWN
Valido dal 18 a 06 ore il 19 a 06 ore UTC


180520Z 1806/1906 02012KT P6SM FEW250
FM181500 03012G22KT P6SM SCT050
FM190000 02012KT P6SM SCT070
Nessun NOTAM noto per questo aeroporto.



MetMap, La meteo Aeronautica in un colpo d'occhio ! - Copyright ORBIFLY Dicembre 2007 - Disclaimer

ORBIFLY MET'MAP TEAM :

Programmazione e sviluppo : Alexandra Zaïnal
Concezione e sviluppo : Baudouin d'Aumeries
Co-Programmazione e sviluppo : Marc-Olivier Méhu
Supporto tecnico e logistico : Manuel Goepfert
Aiuto per la traduzione : Arnaldo La Scala

Contatto : metmap@orbifly.com




FONTI E CREDITI :

   NOAA       Earth
Advisory